createdAt,value
2024-02-18T00:02:26.441Z,48062.94
2024-02-18T00:04:54.948Z,48042.16
2024-02-18T00:07:24.107Z,47969.82
2024-02-18T00:09:54.329Z,47915.08
2024-02-18T00:12:25.030Z,47886.70
2024-02-18T00:14:53.342Z,47898.69
2024-02-18T00:17:21.921Z,47907.08
2024-02-18T00:19:50.381Z,47902.69
2024-02-18T00:22:18.853Z,47901.49
2024-02-18T00:24:47.260Z,47887.90
2024-02-18T00:27:15.781Z,47868.71
2024-02-18T00:29:44.214Z,47901.89
2024-02-18T00:32:12.563Z,47952.64
2024-02-18T00:34:41.024Z,48012.18
2024-02-18T00:37:09.529Z,47995.80
2024-02-18T00:39:38.066Z,47979.01
2024-02-18T00:42:07.791Z,47933.46
2024-02-18T00:44:36.106Z,47911.48
2024-02-18T00:47:06.377Z,47851.13
2024-02-18T00:49:35.854Z,47859.93
2024-02-18T00:52:05.176Z,47869.52
2024-02-18T00:54:33.536Z,47861.13
2024-02-18T00:57:01.969Z,47875.91
2024-02-18T00:59:30.395Z,47908.28
2024-02-18T01:01:58.832Z,47946.64
2024-02-18T01:04:27.597Z,48008.59
2024-02-18T01:06:55.955Z,48028.57
2024-02-18T01:09:24.328Z,48025.37
2024-02-18T01:11:52.892Z,48038.16
2024-02-18T01:14:21.354Z,48019.38
2024-02-18T01:16:50.892Z,48010.99
2024-02-18T01:19:19.338Z,48042.96
2024-02-18T01:21:48.108Z,48034.17
2024-02-18T01:24:16.511Z,48006.59
2024-02-18T01:26:44.756Z,48007.39
2024-02-18T01:29:13.078Z,47965.83
2024-02-18T01:31:41.598Z,47960.63
2024-02-18T01:34:10.952Z,47993.80
2024-02-18T01:36:39.721Z,48030.17
2024-02-18T01:39:09.673Z,48021.38
2024-02-18T01:41:38.779Z,48027.77
2024-02-18T01:44:07.318Z,47984.21
2024-02-18T01:46:35.888Z,47919.47
2024-02-18T01:49:04.814Z,47886.30
2024-02-18T01:51:33.501Z,47895.09
2024-02-18T01:54:02.705Z,47871.51
2024-02-18T01:56:31.331Z,47908.28
2024-02-18T01:59:00.227Z,47894.29
2024-02-18T02:01:29.169Z,47895.89
2024-02-18T02:03:58.345Z,47899.09
2024-02-18T02:06:30.726Z,47888.30
2024-02-18T02:09:00.056Z,47871.91
2024-02-18T02:11:28.615Z,47885.90
2024-02-18T02:13:57.058Z,47887.10
2024-02-18T02:16:25.532Z,47881.91
2024-02-18T02:18:53.975Z,47878.31
2024-02-18T02:21:22.324Z,47874.71
2024-02-18T02:23:51.455Z,47864.72
2024-02-18T02:26:22.162Z,47848.34
2024-02-18T02:29:13.653Z,47791.99
2024-02-18T02:31:43.793Z,47783.60
2024-02-18T02:34:13.336Z,47765.21
2024-02-18T02:36:42.017Z,47758.02
2024-02-18T02:39:11.897Z,47739.64
2024-02-18T02:41:40.625Z,47742.04
2024-02-18T02:44:09.653Z,47739.64
2024-02-18T02:46:37.948Z,47738.04
2024-02-18T02:49:06.558Z,47754.43
2024-02-18T02:51:34.925Z,47763.62
2024-02-18T02:54:03.453Z,47760.42
2024-02-18T02:56:32.029Z,47750.83
2024-02-18T02:59:00.338Z,47754.82
2024-02-18T03:01:28.812Z,47742.84
2024-02-18T03:03:57.347Z,47754.02
2024-02-18T03:06:25.962Z,47752.43
2024-02-18T03:08:54.368Z,47764.41
2024-02-18T03:11:22.852Z,47770.41
2024-02-18T03:13:51.162Z,47790.79
2024-02-18T03:16:19.515Z,47790.39
2024-02-18T03:18:48.065Z,47805.98
2024-02-18T03:21:16.503Z,47801.58
2024-02-18T03:23:45.494Z,47828.36
2024-02-18T03:26:14.926Z,47845.94
2024-02-18T03:28:43.290Z,47872.31
2024-02-18T03:31:19.331Z,47893.89
2024-02-18T03:33:47.920Z,47835.95
2024-02-18T03:36:16.546Z,47799.58
2024-02-18T03:38:44.927Z,47776.40
2024-02-18T03:41:13.274Z,47780.40
2024-02-18T03:43:41.606Z,47755.63
2024-02-18T03:46:10.085Z,47742.04
2024-02-18T03:48:38.609Z,47729.65
2024-02-18T03:51:07.243Z,47729.65
2024-02-18T03:53:35.560Z,47716.06
2024-02-18T03:56:05.756Z,47715.26
2024-02-18T03:58:34.334Z,47713.26
2024-02-18T04:01:02.781Z,47696.88
2024-02-18T04:03:31.234Z,47693.68
2024-02-18T04:05:59.653Z,47714.46
2024-02-18T04:08:28.050Z,47717.66
2024-02-18T04:10:56.477Z,47701.68
2024-02-18T04:13:24.797Z,47698.48
2024-02-18T04:15:53.240Z,47691.29
2024-02-18T04:18:21.723Z,47692.49
2024-02-18T04:20:52.540Z,47704.88
2024-02-18T04:23:21.748Z,47700.48
2024-02-18T04:25:49.996Z,47682.89
2024-02-18T04:28:18.471Z,47690.09
2024-02-18T04:30:47.866Z,47677.70
2024-02-18T04:33:16.211Z,47673.71
2024-02-18T04:35:44.556Z,47680.90
2024-02-18T04:38:12.829Z,47701.68
2024-02-18T04:40:41.377Z,47718.46
2024-02-18T04:43:11.141Z,47741.64
2024-02-18T04:45:40.302Z,47759.62
2024-02-18T04:48:08.905Z,47769.21
2024-02-18T04:50:37.341Z,47778.40
2024-02-18T04:53:05.805Z,47757.63
2024-02-18T04:55:34.097Z,47751.63
2024-02-18T04:58:02.551Z,47723.66
2024-02-18T05:00:31.934Z,47708.47
2024-02-18T05:03:00.328Z,47701.68
2024-02-18T05:05:28.953Z,47690.88
2024-02-18T05:07:57.859Z,47713.66
2024-02-18T05:10:26.312Z,47730.85
2024-02-18T05:12:55.900Z,47721.26
2024-02-18T05:15:25.574Z,47725.66
2024-02-18T05:17:54.073Z,47721.65
2024-02-18T05:20:23.308Z,47712.07
2024-02-18T05:22:52.569Z,47701.68
2024-02-18T05:25:20.823Z,47702.07
2024-02-18T05:27:49.137Z,47703.27
2024-02-18T05:30:17.587Z,47704.07
2024-02-18T05:32:46.847Z,47697.68
2024-02-18T05:35:15.434Z,47701.68
2024-02-18T05:37:44.429Z,47692.48
2024-02-18T05:40:12.846Z,47684.49
2024-02-18T05:42:41.989Z,47676.50
2024-02-18T05:45:12.064Z,47682.49
2024-02-18T05:47:40.604Z,47672.11
2024-02-18T05:50:10.145Z,47677.30
2024-02-18T05:52:40.004Z,47680.10
2024-02-18T05:55:09.316Z,47676.90
2024-02-18T05:57:37.872Z,47675.30
2024-02-18T06:00:07.072Z,47664.11
2024-02-18T06:02:37.397Z,47674.10
2024-02-18T06:05:06.452Z,47659.32
2024-02-18T06:07:34.947Z,47664.11
2024-02-18T06:10:03.549Z,47660.52
2024-02-18T06:12:32.232Z,47656.92
2024-02-18T06:15:01.042Z,47654.52
2024-02-18T06:17:30.410Z,47664.12
2024-02-18T06:19:59.271Z,47656.52
2024-02-18T06:22:28.009Z,47650.52
2024-02-18T06:24:56.674Z,47645.34
2024-02-18T06:27:26.268Z,47649.33
2024-02-18T06:29:55.349Z,47649.73
2024-02-18T06:32:24.884Z,47641.34
2024-02-18T06:34:55.671Z,47645.33
2024-02-18T06:37:24.736Z,47648.53
2024-02-18T06:39:53.114Z,47654.52
2024-02-18T06:42:21.505Z,47644.54
2024-02-18T06:44:56.349Z,47624.55
2024-02-18T06:47:24.748Z,47605.77
2024-02-18T06:49:53.559Z,47606.57
2024-02-18T06:52:25.220Z,47602.57
2024-02-18T06:54:53.792Z,47606.17
2024-02-18T06:57:24.323Z,47607.37
2024-02-18T06:59:52.876Z,47606.57
2024-02-18T07:02:21.279Z,47587.39
2024-02-18T07:04:49.898Z,47577.00
2024-02-18T07:07:18.403Z,47585.39
2024-02-18T07:09:48.961Z,47587.79
2024-02-18T07:12:17.617Z,47597.78
2024-02-18T07:14:45.880Z,47595.78
2024-02-18T07:17:21.458Z,47599.38
2024-02-18T07:19:50.794Z,47596.98
2024-02-18T07:22:21.765Z,47608.16
2024-02-18T07:24:50.276Z,47607.77
2024-02-18T07:27:18.592Z,47623.36
2024-02-18T07:29:46.897Z,47628.55
2024-02-18T07:32:15.408Z,47637.34
2024-02-18T07:34:43.858Z,47636.14
2024-02-18T07:37:12.517Z,47636.14
2024-02-18T07:39:41.108Z,47635.74
2024-02-18T07:42:09.667Z,47627.75
2024-02-18T07:44:38.625Z,47632.94
2024-02-18T07:47:07.037Z,47638.14
2024-02-18T07:49:36.138Z,47630.54
2024-02-18T07:52:06.002Z,47624.95
2024-02-18T07:54:34.442Z,47638.14
2024-02-18T07:57:02.900Z,47617.76
2024-02-18T07:59:33.019Z,47611.37
2024-02-18T08:02:03.227Z,47626.55
2024-02-18T08:04:31.810Z,47636.94
2024-02-18T08:07:00.279Z,47604.17
2024-02-18T08:09:28.777Z,47608.97
2024-02-18T08:11:57.292Z,47632.54
2024-02-18T08:14:25.747Z,47637.74
2024-02-18T08:16:56.506Z,47651.32
2024-02-18T08:19:25.002Z,47639.74
2024-02-18T08:21:53.672Z,47644.93
2024-02-18T08:24:22.145Z,47643.73
2024-02-18T08:26:50.696Z,47652.13
2024-02-18T08:29:19.236Z,47654.92
2024-02-18T08:31:47.704Z,47671.30
2024-02-18T08:34:16.220Z,47693.68
2024-02-18T08:36:45.959Z,47687.70
2024-02-18T08:39:14.446Z,47686.49
2024-02-18T08:41:42.777Z,47675.70
2024-02-18T08:44:13.613Z,47670.51
2024-02-18T08:46:43.100Z,47658.52
2024-02-18T08:49:11.595Z,47666.11
2024-02-18T08:51:40.790Z,47685.69
2024-02-18T08:54:10.389Z,47684.49
2024-02-18T08:56:38.727Z,47682.50
2024-02-18T08:59:08.369Z,47682.90
2024-02-18T09:01:36.839Z,47705.27
2024-02-18T09:04:05.680Z,47692.49
2024-02-18T09:06:34.507Z,47717.66
2024-02-18T09:09:03.103Z,47731.25
2024-02-18T09:11:31.485Z,47758.43
2024-02-18T09:14:00.649Z,47783.20
2024-02-18T09:16:31.488Z,47739.64
2024-02-18T09:18:59.933Z,47745.23
2024-02-18T09:21:28.481Z,47768.41
2024-02-18T09:24:00.829Z,47779.60
2024-02-18T09:26:32.096Z,47811.17
2024-02-18T09:29:00.431Z,47875.11
2024-02-18T09:31:28.859Z,47872.71
2024-02-18T09:33:57.528Z,47881.91
2024-02-18T09:36:25.921Z,47847.54
2024-02-18T09:38:57.354Z,47862.32
2024-02-18T09:41:29.071Z,47924.26
2024-02-18T09:44:08.308Z,48058.54
2024-02-18T09:46:38.391Z,48007.39
2024-02-18T09:49:09.990Z,48070.13
2024-02-18T09:51:39.211Z,48057.35
2024-02-18T09:54:10.081Z,48180.43
2024-02-18T09:56:38.884Z,48173.64
2024-02-18T09:59:09.594Z,48438.23
2024-02-18T10:01:38.390Z,48614.89
2024-02-18T10:04:09.431Z,48743.59
2024-02-18T10:06:37.938Z,48781.97
2024-02-18T10:09:09.292Z,48805.95
2024-02-18T10:11:37.876Z,48852.72
2024-02-18T10:14:08.619Z,48859.91
2024-02-18T10:16:37.735Z,48861.91
2024-02-18T10:19:10.886Z,48868.71
2024-02-18T10:21:39.509Z,48857.92
2024-02-18T10:24:10.677Z,48854.32
2024-02-18T10:26:40.404Z,48862.71
2024-02-18T10:29:10.853Z,48851.12
2024-02-18T10:31:39.169Z,48862.31
2024-02-18T10:34:07.757Z,48851.12
2024-02-18T10:36:38.209Z,48847.12
2024-02-18T10:39:14.297Z,48824.74
2024-02-18T10:41:49.932Z,48815.15
2024-02-18T10:44:19.412Z,48824.74
2024-02-18T10:46:49.852Z,48832.73
2024-02-18T10:49:34.400Z,48831.13
2024-02-18T10:52:17.819Z,48835.93
2024-02-18T10:54:52.926Z,48824.74
2024-02-18T10:57:27.051Z,48816.34
2024-02-18T11:00:04.589Z,48816.74
2024-02-18T11:03:05.750Z,48810.75
2024-02-18T11:05:37.717Z,48801.55
2024-02-18T11:08:13.897Z,48802.35
2024-02-18T11:10:44.390Z,48810.75
2024-02-18T11:13:15.839Z,48805.55
2024-02-18T11:15:44.413Z,48816.74
2024-02-18T11:18:14.759Z,48799.16
2024-02-18T11:20:43.587Z,48800.75
2024-02-18T11:23:12.198Z,48801.15
2024-02-18T11:25:41.173Z,48807.15
2024-02-18T11:28:10.071Z,48808.35
2024-02-18T11:30:38.534Z,48796.76
2024-02-18T11:33:08.741Z,48802.35
2024-02-18T11:35:37.229Z,48809.55
2024-02-18T11:38:08.475Z,48806.35
2024-02-18T11:40:47.373Z,48812.75
2024-02-18T11:43:16.268Z,48814.75
2024-02-18T11:45:52.399Z,48807.15
2024-02-18T11:48:21.865Z,48801.16
2024-02-18T11:50:51.862Z,48791.96
2024-02-18T11:53:21.617Z,48781.17
2024-02-18T11:55:50.937Z,48792.76
2024-02-18T11:58:19.436Z,48791.96
2024-02-18T12:00:47.947Z,48798.35
2024-02-18T12:03:18.487Z,48779.57
2024-02-18T12:05:47.111Z,48799.55
2024-02-18T12:08:16.345Z,48793.56
2024-02-18T12:10:44.720Z,48780.77
2024-02-18T12:13:13.273Z,48773.98
2024-02-18T12:15:44.896Z,48767.57
2024-02-18T12:18:13.793Z,48769.57
2024-02-18T12:20:44.879Z,48779.57
2024-02-18T12:23:13.167Z,48776.37
2024-02-18T12:25:42.196Z,48769.18
2024-02-18T12:28:11.463Z,48767.57
2024-02-18T12:30:40.272Z,48769.57
2024-02-18T12:33:09.481Z,48767.98
2024-02-18T12:35:38.532Z,48763.18
2024-02-18T12:38:08.683Z,48764.38
2024-02-18T12:40:39.169Z,48769.98
2024-02-18T12:43:38.870Z,48771.57
2024-02-18T12:46:06.004Z,48765.18
2024-02-18T12:48:38.826Z,48754.79
2024-02-18T12:51:16.725Z,48761.58
2024-02-18T12:53:46.110Z,48771.18
2024-02-18T12:56:17.437Z,48761.18
2024-02-18T12:58:46.076Z,48760.79
2024-02-18T13:01:15.104Z,48766.78
2024-02-18T13:03:47.755Z,48768.38
2024-02-18T13:06:19.133Z,48779.17
2024-02-18T13:08:47.781Z,48783.97
2024-02-18T13:11:18.126Z,48784.76
2024-02-18T13:13:47.190Z,48782.77
2024-02-18T13:16:15.793Z,48775.17
2024-02-18T13:18:45.304Z,48777.57
2024-02-18T13:21:16.682Z,48769.18
2024-02-18T13:23:45.412Z,48784.77
2024-02-18T13:26:13.910Z,48779.17
2024-02-18T13:28:42.485Z,48773.57
2024-02-18T13:31:14.476Z,48786.77
2024-02-18T13:33:43.970Z,48770.38
2024-02-18T13:36:13.294Z,48776.77
2024-02-18T13:38:41.777Z,48771.18
2024-02-18T13:41:10.241Z,48770.78
2024-02-18T13:43:39.092Z,48779.17
2024-02-18T13:46:07.686Z,48787.57
2024-02-18T13:48:37.102Z,48787.57
2024-02-18T13:51:06.293Z,48779.57
2024-02-18T13:53:35.850Z,48780.37
2024-02-18T13:56:04.796Z,48779.97
2024-02-18T13:58:33.842Z,48785.96
2024-02-18T14:01:03.026Z,48783.96
2024-02-18T14:03:31.421Z,48790.36
2024-02-18T14:05:59.915Z,48781.17
2024-02-18T14:08:28.366Z,48796.36
2024-02-18T14:10:56.804Z,48784.37
2024-02-18T14:13:25.499Z,48783.57
2024-02-18T14:15:55.088Z,48791.16
2024-02-18T14:18:24.708Z,48778.37
2024-02-18T14:20:56.541Z,48783.96
2024-02-18T14:23:25.386Z,48782.77
2024-02-18T14:25:53.840Z,48787.16
2024-02-18T14:28:23.109Z,48787.16
2024-02-18T14:30:51.668Z,48799.55
2024-02-18T14:33:20.202Z,48786.36
2024-02-18T14:35:48.713Z,48787.96
2024-02-18T14:38:17.055Z,48787.56
2024-02-18T14:40:45.523Z,48781.57
2024-02-18T14:43:15.803Z,48785.96
2024-02-18T14:45:45.454Z,48802.75
2024-02-18T14:48:14.156Z,48816.74
2024-02-18T14:50:42.832Z,48807.15
2024-02-18T14:53:11.912Z,48797.96
2024-02-18T14:55:40.381Z,48810.75
2024-02-18T14:58:10.315Z,48803.16
2024-02-18T15:00:38.902Z,48797.55
2024-02-18T15:03:07.247Z,48803.16
2024-02-18T15:05:35.642Z,48812.34
2024-02-18T15:08:04.457Z,48819.54
2024-02-18T15:10:33.001Z,48819.14
2024-02-18T15:13:05.588Z,48795.16
2024-02-18T15:15:36.067Z,48807.55
2024-02-18T15:18:04.613Z,48808.35
2024-02-18T15:20:33.209Z,48791.56
2024-02-18T15:23:02.157Z,48791.16
2024-02-18T15:25:30.607Z,48772.38
2024-02-18T15:27:59.177Z,48726.01
2024-02-18T15:30:27.682Z,48700.02
2024-02-18T15:32:56.601Z,48750.39
2024-02-18T15:35:25.587Z,48713.62
2024-02-18T15:37:55.170Z,48731.20
2024-02-18T15:40:23.836Z,48624.88
2024-02-18T15:42:55.041Z,48597.30
2024-02-18T15:45:23.556Z,48559.33
2024-02-18T15:47:52.796Z,48528.55
2024-02-18T15:50:21.368Z,48393.46
2024-02-18T15:52:50.502Z,48375.48
2024-02-18T15:55:22.980Z,48383.46
2024-02-18T15:57:51.672Z,48308.33
2024-02-18T16:00:21.399Z,48326.32
2024-02-18T16:02:49.858Z,48218.01
2024-02-18T16:05:18.539Z,48241.18
2024-02-18T16:07:48.218Z,48174.84
2024-02-18T16:10:22.980Z,48117.70
2024-02-18T16:12:52.684Z,48072.13
2024-02-18T16:15:22.934Z,48016.59
2024-02-18T16:17:51.500Z,47983.41
2024-02-18T16:20:20.143Z,47920.67
2024-02-18T16:22:49.354Z,47959.04
2024-02-18T16:25:18.095Z,47935.85
2024-02-18T16:27:48.771Z,47889.10
2024-02-18T16:30:21.942Z,47811.97
2024-02-18T16:32:50.570Z,47746.43
2024-02-18T16:35:19.820Z,47713.66
2024-02-18T16:37:48.760Z,47685.70
2024-02-18T16:40:19.206Z,47676.10
2024-02-18T16:42:49.566Z,47639.74
2024-02-18T16:45:18.126Z,47622.55
2024-02-18T16:47:47.119Z,47617.36
2024-02-18T16:50:15.846Z,47605.77
2024-02-18T16:52:45.465Z,47594.18
2024-02-18T16:55:14.388Z,47579.00
2024-02-18T16:57:43.145Z,47574.60
2024-02-18T17:00:15.815Z,47575.80
2024-02-18T17:02:45.974Z,47583.79
2024-02-18T17:05:15.536Z,47573.00
2024-02-18T17:07:44.394Z,47569.41
2024-02-18T17:10:13.108Z,47571.81
2024-02-18T17:12:45.666Z,47579.40
2024-02-18T17:15:14.075Z,47578.60
2024-02-18T17:17:42.525Z,47577.00
2024-02-18T17:20:11.719Z,47580.20
2024-02-18T17:22:40.509Z,47578.60
2024-02-18T17:25:09.201Z,47579.79
2024-02-18T17:27:37.617Z,47577.40
2024-02-18T17:30:06.545Z,47574.60
2024-02-18T17:32:34.942Z,47586.59
2024-02-18T17:35:05.588Z,47592.98
2024-02-18T17:37:36.467Z,47567.01
2024-02-18T17:40:05.980Z,47544.23
2024-02-18T17:42:35.342Z,47546.63
2024-02-18T17:45:06.413Z,47567.81
2024-02-18T17:47:37.084Z,47571.80
2024-02-18T17:50:11.279Z,47567.41
2024-02-18T17:52:39.760Z,47564.61
2024-02-18T17:55:08.864Z,47574.20
2024-02-18T17:57:39.758Z,47582.59
2024-02-18T18:00:11.185Z,47569.81
2024-02-18T18:02:39.966Z,47591.39
2024-02-18T18:05:09.192Z,47582.59
2024-02-18T18:07:38.050Z,47577.80
2024-02-18T18:10:08.740Z,47582.20
2024-02-18T18:12:37.707Z,47569.81
2024-02-18T18:15:09.681Z,47574.20
2024-02-18T18:17:38.161Z,47578.20
2024-02-18T18:20:12.275Z,47583.39
2024-02-18T18:22:42.231Z,47570.61
2024-02-18T18:25:11.510Z,47547.43
2024-02-18T18:27:41.851Z,47550.63
2024-02-18T18:30:10.634Z,47542.64
2024-02-18T18:32:39.067Z,47575.00
2024-02-18T18:35:10.453Z,47575.40
2024-02-18T18:37:41.382Z,47595.78
2024-02-18T18:40:11.280Z,47599.78
2024-02-18T18:42:39.766Z,47608.17
2024-02-18T18:45:10.445Z,47590.19
2024-02-18T18:47:38.914Z,47598.57
2024-02-18T18:50:09.335Z,47591.38
2024-02-18T18:52:38.902Z,47617.36
2024-02-18T18:55:07.794Z,47617.36
2024-02-18T18:57:36.255Z,47623.36
2024-02-18T19:00:07.147Z,47627.75
2024-02-18T19:02:38.768Z,47617.36
2024-02-18T19:05:07.630Z,47620.96
2024-02-18T19:07:36.523Z,47637.34
2024-02-18T19:10:06.905Z,47646.93
2024-02-18T19:12:35.687Z,47638.14
2024-02-18T19:15:08.123Z,47660.12
2024-02-18T19:17:44.851Z,47669.30
2024-02-18T19:20:13.875Z,47688.09
2024-02-18T19:22:42.546Z,47708.47
2024-02-18T19:25:11.346Z,47727.25
2024-02-18T19:27:39.758Z,47746.03
2024-02-18T19:30:15.202Z,47734.45
2024-02-18T19:32:43.693Z,47768.81
2024-02-18T19:35:16.356Z,47826.76
2024-02-18T19:37:45.276Z,47888.30
2024-02-18T19:40:14.931Z,47963.83
2024-02-18T19:42:45.135Z,47996.20
2024-02-18T19:45:16.266Z,48110.10
2024-02-18T19:47:47.441Z,48348.30
2024-02-18T19:50:17.766Z,48557.34
2024-02-18T19:52:48.915Z,48652.06
2024-02-18T19:55:18.992Z,48596.10
2024-02-18T19:57:47.461Z,48753.59
2024-02-18T20:00:18.489Z,48821.14
2024-02-18T20:02:49.427Z,48828.34
2024-02-18T20:05:17.895Z,48833.53
2024-02-18T20:07:46.316Z,48827.54
2024-02-18T20:10:14.809Z,48810.35
2024-02-18T20:12:45.163Z,48802.35
2024-02-18T20:15:14.995Z,48801.15
2024-02-18T20:17:46.098Z,48780.37
2024-02-18T20:20:15.932Z,48783.57
2024-02-18T20:22:46.299Z,48783.96
2024-02-18T20:25:19.992Z,48779.57
2024-02-18T20:27:50.085Z,48778.77
2024-02-18T20:30:20.923Z,48766.78
2024-02-18T20:32:49.367Z,48769.58
2024-02-18T20:35:17.871Z,48780.37
2024-02-18T20:37:46.340Z,48769.98
2024-02-18T20:40:18.666Z,48775.97
2024-02-18T20:42:51.735Z,48779.97
2024-02-18T20:45:25.390Z,48767.98
2024-02-18T20:47:54.499Z,48781.17
2024-02-18T20:50:22.885Z,48768.77
2024-02-18T20:52:51.968Z,48761.98
2024-02-18T20:55:23.712Z,48766.38
2024-02-18T20:57:53.008Z,48757.98
2024-02-18T21:00:27.753Z,48768.38
2024-02-18T21:03:00.668Z,48767.18
2024-02-18T21:05:30.174Z,48775.57
2024-02-18T21:08:00.277Z,48764.38
2024-02-18T21:10:29.944Z,48759.59
2024-02-18T21:12:59.524Z,48765.18
2024-02-18T21:15:28.854Z,48761.98
2024-02-18T21:17:57.198Z,48762.78
2024-02-18T21:20:25.555Z,48761.18
2024-02-18T21:22:54.192Z,48769.98
2024-02-18T21:25:22.752Z,48767.98
2024-02-18T21:27:51.506Z,48773.18
2024-02-18T21:30:19.996Z,48767.18
2024-02-18T21:32:49.583Z,48764.78
2024-02-18T21:35:18.574Z,48764.78
2024-02-18T21:37:47.648Z,48759.18
2024-02-18T21:40:16.176Z,48770.77
2024-02-18T21:42:44.570Z,48763.18
2024-02-18T21:45:12.892Z,48770.77
2024-02-18T21:47:41.226Z,48767.18
2024-02-18T21:50:13.878Z,48773.57
2024-02-18T21:52:42.979Z,48759.98
2024-02-18T21:55:11.809Z,48763.18
2024-02-18T21:57:40.649Z,48758.78
2024-02-18T22:00:09.369Z,48760.78
2024-02-18T22:02:37.974Z,48769.58
2024-02-18T22:05:06.752Z,48747.59
2024-02-18T22:07:38.431Z,48753.99
2024-02-18T22:10:08.459Z,48755.19
2024-02-18T22:12:36.876Z,48750.79
2024-02-18T22:15:05.632Z,48753.59
2024-02-18T22:17:34.029Z,48757.98
2024-02-18T22:20:02.578Z,48746.79
2024-02-18T22:22:31.277Z,48748.39
2024-02-18T22:24:59.639Z,48759.19
2024-02-18T22:27:28.027Z,48757.18
2024-02-18T22:29:56.348Z,48752.79
2024-02-18T22:32:24.790Z,48757.59
2024-02-18T22:34:53.405Z,48758.79
2024-02-18T22:37:21.958Z,48756.39
2024-02-18T22:39:50.311Z,48755.99
2024-02-18T22:42:18.636Z,48762.38
2024-02-18T22:44:47.015Z,48756.79
2024-02-18T22:47:15.396Z,48755.59
2024-02-18T22:49:43.769Z,48763.98
2024-02-18T22:52:12.078Z,48763.98
2024-02-18T22:54:40.419Z,48748.79
2024-02-18T22:57:08.745Z,48754.39
2024-02-18T22:59:36.967Z,48748.79
2024-02-18T23:02:05.894Z,48751.59
2024-02-18T23:04:34.279Z,48747.59
2024-02-18T23:07:07.797Z,48745.59
2024-02-18T23:09:37.308Z,48715.62
2024-02-18T23:12:06.020Z,48620.88
2024-02-18T23:14:34.368Z,48622.88
2024-02-18T23:17:02.803Z,48633.68
2024-02-18T23:19:31.332Z,48627.68
2024-02-18T23:21:59.803Z,48630.08
2024-02-18T23:24:28.142Z,48622.88
2024-02-18T23:26:56.445Z,48624.48
2024-02-18T23:29:24.728Z,48624.08
2024-02-18T23:31:53.081Z,48628.88
2024-02-18T23:34:21.492Z,48624.48
2024-02-18T23:36:50.129Z,48626.88
2024-02-18T23:39:18.460Z,48633.67
2024-02-18T23:41:46.767Z,48624.09
2024-02-18T23:44:15.500Z,48629.68
2024-02-18T23:46:44.333Z,48634.07
2024-02-18T23:49:12.807Z,48640.47
2024-02-18T23:51:41.451Z,48636.47
2024-02-18T23:54:09.806Z,48638.07
2024-02-18T23:56:38.276Z,48628.48
2024-02-18T23:59:06.697Z,48634.47
